createdAt,value
2022-08-01T00:01:07.050Z,5.38
2022-08-01T00:07:09.928Z,5.90
2022-08-01T00:13:11.800Z,5.88
2022-08-01T00:19:13.798Z,5.95
2022-08-01T00:25:15.610Z,4.30
2022-08-01T00:31:17.411Z,4.40
2022-08-01T00:37:19.171Z,4.25
2022-08-01T00:43:20.941Z,4.95
2022-08-01T00:49:22.777Z,5.68
2022-08-01T00:55:25.297Z,6.30
2022-08-01T01:01:39.144Z,5.88
2022-08-01T01:08:01.881Z,5.72
2022-08-01T01:14:10.832Z,5.22
2022-08-01T01:20:15.039Z,5.78
2022-08-01T01:27:10.890Z,7.03
2022-08-01T01:33:14.715Z,6.40
2022-08-01T01:39:17.969Z,6.32
2022-08-01T01:45:20.332Z,6.18
2022-08-01T01:51:25.149Z,5.80
2022-08-01T01:57:28.676Z,5.95
2022-08-01T02:03:32.563Z,5.00
2022-08-01T02:09:36.467Z,4.18
2022-08-01T02:15:59.501Z,4.30
2022-08-01T02:22:09.021Z,4.95
2022-08-01T02:28:29.132Z,3.85
2022-08-01T02:34:33.258Z,4.20
2022-08-01T02:40:38.819Z,4.50
2022-08-01T02:46:58.412Z,4.18
2022-08-01T02:53:02.774Z,4.18
2022-08-01T02:59:15.437Z,3.80
2022-08-01T03:05:18.565Z,3.60
2022-08-01T03:11:23.234Z,3.10
2022-08-01T03:17:27.840Z,3.38
2022-08-01T03:23:37.955Z,3.00
2022-08-01T03:29:41.528Z,3.22
2022-08-01T03:35:50.539Z,3.10
2022-08-01T03:41:58.853Z,3.13
2022-08-01T03:48:04.405Z,3.33
2022-08-01T03:54:07.969Z,3.10
2022-08-01T04:00:10.627Z,3.95
2022-08-01T04:06:16.503Z,4.65
2022-08-01T04:12:18.659Z,4.35
2022-08-01T04:18:20.723Z,3.85
2022-08-01T04:24:24.858Z,3.50
2022-08-01T04:30:32.768Z,3.30
2022-08-01T04:42:38.064Z,2.97
2022-08-01T04:48:40.542Z,3.10
2022-08-01T04:54:42.504Z,3.83
2022-08-01T05:00:44.596Z,3.80
2022-08-01T05:06:46.500Z,3.95
2022-08-01T05:12:48.248Z,3.72
2022-08-01T05:18:50.030Z,3.60
2022-08-01T05:24:51.860Z,3.08
2022-08-01T05:30:56.010Z,3.13
2022-08-01T05:36:58.136Z,3.15
2022-08-01T05:42:59.965Z,2.78
2022-08-01T05:49:03.751Z,2.90
2022-08-01T05:55:06.253Z,2.60
2022-08-01T06:01:08.076Z,2.67
2022-08-01T06:07:09.839Z,2.97
2022-08-01T06:13:11.591Z,2.47
2022-08-01T06:19:13.390Z,2.67
2022-08-01T06:25:18.381Z,2.20
2022-08-01T06:31:22.472Z,2.63
2022-08-01T06:37:24.390Z,2.00
2022-08-01T06:43:26.226Z,2.00
2022-08-01T06:49:28.180Z,2.00
2022-08-01T06:55:29.991Z,1.60
2022-08-01T07:01:35.245Z,1.73
2022-08-01T07:07:37.346Z,1.48
2022-08-01T07:13:45.562Z,1.55
2022-08-01T07:19:48.852Z,1.20
2022-08-01T07:25:53.029Z,1.40
2022-08-01T07:31:57.126Z,0.93
2022-08-01T07:37:58.947Z,0.80
2022-08-01T07:44:04.639Z,0.88
2022-08-01T07:50:07.639Z,0.80
2022-08-01T07:56:09.800Z,0.70
2022-08-01T08:02:12.084Z,0.80
2022-08-01T08:08:15.484Z,0.70
2022-08-01T08:14:17.675Z,0.98
2022-08-01T08:20:19.504Z,0.70
2022-08-01T08:26:21.924Z,0.90
2022-08-01T08:32:23.863Z,0.95
2022-08-01T08:38:28.452Z,0.80
2022-08-01T08:44:31.952Z,0.60
2022-08-01T08:50:34.420Z,0.80
2022-08-01T08:56:38.463Z,0.73
2022-08-01T09:02:45.390Z,0.75
2022-08-01T09:08:47.833Z,0.70
2022-08-01T09:14:51.287Z,0.80
2022-08-01T09:21:07.938Z,0.70
2022-08-01T09:27:21.724Z,0.80
2022-08-01T09:33:24.480Z,0.68
2022-08-01T09:39:28.850Z,0.70
2022-08-01T09:45:41.814Z,0.70
2022-08-01T09:51:59.959Z,0.90
2022-08-01T09:58:02.668Z,0.88
2022-08-01T10:04:09.962Z,0.80
2022-08-01T10:10:14.300Z,0.30
2022-08-01T10:16:17.587Z,0.32
2022-08-01T10:22:20.545Z,0.50
2022-08-01T10:28:24.421Z,0.70
2022-08-01T10:34:29.112Z,0.60
2022-08-01T10:40:32.933Z,0.50
2022-08-01T10:46:39.614Z,0.68
2022-08-01T10:52:41.951Z,0.50
2022-08-01T10:58:44.981Z,0.70
2022-08-01T11:04:58.632Z,0.63
2022-08-01T11:11:04.715Z,0.50
2022-08-01T11:17:37.926Z,0.45
2022-08-01T11:23:52.818Z,0.50
2022-08-01T11:30:13.137Z,0.70
2022-08-01T11:36:18.497Z,0.80
2022-08-01T11:42:21.634Z,0.80
2022-08-01T11:48:27.488Z,0.90
2022-08-01T11:54:34.783Z,1.02
2022-08-01T12:00:38.303Z,0.60
2022-08-01T12:06:45.899Z,0.80
2022-08-01T12:12:55.571Z,0.70
2022-08-01T12:18:58.461Z,0.80
2022-08-01T12:25:13.700Z,0.80
2022-08-01T12:31:15.503Z,0.80
2022-08-01T12:37:17.699Z,0.82
2022-08-01T12:43:28.647Z,0.70
2022-08-01T12:49:31.769Z,0.73
2022-08-01T12:55:34.736Z,0.73
2022-08-01T13:01:36.960Z,0.85
2022-08-01T13:07:48.970Z,0.70
2022-08-01T13:13:52.129Z,0.70
2022-08-01T13:19:58.688Z,0.60
2022-08-01T13:26:00.775Z,0.70
2022-08-01T13:32:27.538Z,0.70
2022-08-01T13:38:50.762Z,0.70
2022-08-01T13:44:52.552Z,0.90
2022-08-01T13:51:20.069Z,1.00
2022-08-01T13:57:17.417Z,0.75
2022-08-01T14:03:19.286Z,1.00
2022-08-01T14:09:24.682Z,1.00
2022-08-01T14:15:38.389Z,0.80
2022-08-01T14:21:41.311Z,1.02
2022-08-01T14:27:43.103Z,1.13
2022-08-01T14:33:44.884Z,1.30
2022-08-01T14:39:53.477Z,1.30
2022-08-01T14:45:56.437Z,1.45
2022-08-01T14:51:58.748Z,1.60
2022-08-01T14:58:00.515Z,1.40
2022-08-01T15:04:02.311Z,2.40
2022-08-01T15:10:06.971Z,2.20
2022-08-01T15:16:08.946Z,2.70
2022-08-01T15:22:14.128Z,2.05
2022-08-01T15:28:16.232Z,2.10
2022-08-01T15:34:18.026Z,2.53
2022-08-01T15:40:19.797Z,2.05
2022-08-01T15:46:21.634Z,2.25
2022-08-01T15:52:31.712Z,2.53
2022-08-01T15:58:33.975Z,2.75
2022-08-01T16:04:36.310Z,2.35
2022-08-01T16:10:41.359Z,2.40
2022-08-01T16:16:43.286Z,2.42
2022-08-01T16:22:49.909Z,2.53
2022-08-01T16:28:52.851Z,2.45
2022-08-01T16:34:54.728Z,2.50
2022-08-01T16:40:56.543Z,2.30
2022-08-01T16:47:00.658Z,2.63
2022-08-01T16:53:02.531Z,2.33
2022-08-01T16:59:04.319Z,2.63
2022-08-01T17:05:12.589Z,2.40
2022-08-01T17:11:15.430Z,2.13
2022-08-01T17:17:17.312Z,2.20
2022-08-01T17:23:19.313Z,2.30
2022-08-01T17:29:21.139Z,2.00
2022-08-01T17:35:23.015Z,2.30
2022-08-01T17:41:24.840Z,2.60
2022-08-01T17:47:49.337Z,2.30
2022-08-01T17:53:56.182Z,2.05
2022-08-01T17:59:59.718Z,2.45
2022-08-01T18:06:02.295Z,2.80
2022-08-01T18:12:04.787Z,3.15
2022-08-01T18:18:14.030Z,3.00
2022-08-01T18:24:22.322Z,3.30
2022-08-01T18:30:24.185Z,3.25
2022-08-01T18:36:32.856Z,3.00
2022-08-01T18:42:35.411Z,3.60
2022-08-01T18:48:37.505Z,3.15
2022-08-01T18:54:39.296Z,3.28
2022-08-01T19:00:42.258Z,3.78
2022-08-01T19:06:44.158Z,3.65
2022-08-01T19:12:49.592Z,3.90
2022-08-01T19:18:51.422Z,4.03
2022-08-01T19:24:53.656Z,4.13
2022-08-01T19:30:58.097Z,4.07
2022-08-01T19:36:59.961Z,4.45
2022-08-01T19:43:02.957Z,4.53
2022-08-01T19:49:04.830Z,5.00
2022-08-01T19:55:07.939Z,5.85
2022-08-01T20:01:15.136Z,6.13
2022-08-01T20:07:17.156Z,6.32
2022-08-01T20:13:19.736Z,6.97
2022-08-01T20:19:24.425Z,6.90
2022-08-01T20:25:40.237Z,7.00
2022-08-01T20:31:48.065Z,6.75
2022-08-01T20:38:06.698Z,6.88
2022-08-01T20:44:09.911Z,7.25
2022-08-01T20:50:53.261Z,9.35
2022-08-01T20:56:59.835Z,8.48
2022-08-01T21:03:10.509Z,8.27
2022-08-01T21:09:18.818Z,7.72
2022-08-01T21:15:33.361Z,7.60
2022-08-01T21:21:38.390Z,8.45
2022-08-01T21:27:40.661Z,9.82
2022-08-01T21:34:02.462Z,9.45
2022-08-01T21:40:09.809Z,8.88
2022-08-01T21:46:12.528Z,9.10
2022-08-01T21:52:22.607Z,8.80
2022-08-01T21:59:01.962Z,9.25
2022-08-01T22:05:07.518Z,8.90
2022-08-01T22:11:13.786Z,8.95
2022-08-01T22:17:22.704Z,8.35
2022-08-01T22:23:24.955Z,9.13
2022-08-01T22:29:29.131Z,8.23
2022-08-01T22:35:31.258Z,7.40
2022-08-01T22:42:01.604Z,7.30
2022-08-01T22:48:19.690Z,8.10
2022-08-01T22:54:52.886Z,7.35
2022-08-01T23:00:56.163Z,7.03
2022-08-01T23:07:01.805Z,6.97
2022-08-01T23:13:04.248Z,7.47
2022-08-01T23:19:08.669Z,7.80
2022-08-01T23:32:51.904Z,8.57
2022-08-01T23:46:04.171Z,8.15
